Grand Ruby — 3EIU3 — position and weather

sailwx.info

Track history (hours):
 
Tides and Currents Weather Stations Pressure Air Temp Water Temp Dewpoint Dewpoint Depression Visibility Wind Speed Wind Dir Waves Ship Positions

Grand Ruby

Last reported at 2017-Nov-20 00:31 UTC. Time now 2017-Nov-22 20:45 UTC.
Position N 43°14' E 010°03'.

Length 199 m; draft 9 m.

Type: Cargo ship. MMSI: 372399000.

Date/timePositionNaut miles runAvg speedWind from/ knotsBaromVisibWave heightAir tempDewpointWater temp
2017-Nov-20 00:31N 43°14' E 010°03'1 1.2
2017-Nov-20 00:00N 43°14' E 010°03'4 7.1
2017-Nov-19 23:30N 43°10' E 010°02'714.3
2017-Nov-19 23:01N 43°03' E 010°00'815.3
2017-Nov-19 22:30N 42°56' E 009°58'5414.0
2017-Nov-19 18:39N 42°03' E 010°17'315.6
2017-Nov-19 18:27N 42°01' E 010°20'27615.3
2017-Nov-19 00:29N 38°58' E 014°50'815.9
2017-Nov-18 23:59N 38°52' E 014°57'715.4
2017-Nov-18 23:30N 38°47' E 015°04'816.1
2017-Nov-18 23:00N 38°42' E 015°13'815.9
2017-Nov-18 22:30N 38°37' E 015°20'815.9
2017-Nov-18 22:00N 38°32' E 015°28'815.7
2017-Nov-18 21:30N 38°27' E 015°35'815.2
2017-Nov-18 21:00N 38°21' E 015°42'612.5
2017-Nov-18 20:31N 38°15' E 015°39'612.7
2017-Nov-18 20:00N 38°09' E 015°36'612.1
2017-Nov-18 19:30N 38°03' E 015°36'612.9
2017-Nov-18 19:00N 37°56' E 015°36'714.8
2017-Nov-18 18:30N 37°50' E 015°41'816.2
2017-Nov-18 18:00N 37°50' E 015°52'815.9
2017-Nov-18 17:30N 37°48' E 016°02'36313.8
2017-Nov-17 15:07N 37°18' E 023°38'216.6
2017-Nov-17 15:00N 37°20' E 023°38'916.4
2017-Nov-17 14:29N 37°28' E 023°40'816.1
2017-Nov-17 14:00N 37°36' E 023°42'815.6
2017-Nov-17 13:30N 37°43' E 023°40'815.7
2017-Nov-17 13:00N 37°51' E 023°37'611.5
2017-Nov-17 12:31N 37°56' E 023°36'1 2.3
2017-Nov-17 11:58N 37°58' E 023°36'0 0.0
2017-Nov-17 11:25N 37°58' E 023°36'0 0.0
2017-Nov-17 10:58N 37°58' E 023°36'0 0.0
2017-Nov-17 10:28N 37°58' E 023°36'0 0.0
2017-Nov-17 09:58N 37°58' E 023°36'0 0.0
2017-Nov-17 09:28N 37°58' E 023°36'0 0.0
2017-Nov-17 08:58N 37°58' E 023°36'0 0.0
2017-Nov-17 08:28N 37°58' E 023°36'0 0.0
2017-Nov-17 07:58N 37°58' E 023°36'0 0.0
2017-Nov-17 07:28N 37°58' E 023°36'0 0.0
2017-Nov-17 06:58N 37°58' E 023°36'0 0.0
2017-Nov-17 06:28N 37°58' E 023°36'0 0.0
2017-Nov-17 05:58N 37°58' E 023°36'0 0.0
2017-Nov-17 05:28N 37°58' E 023°36'0 0.0
2017-Nov-17 04:58N 37°58' E 023°36'0 0.0
2017-Nov-17 04:28N 37°58' E 023°36'0 0.0
2017-Nov-17 03:58N 37°58' E 023°36'0 0.0
2017-Nov-17 03:28N 37°58' E 023°36'0 0.0
2017-Nov-17 02:58N 37°58' E 023°36'0 0.0
2017-Nov-17 02:28N 37°58' E 023°36'0 0.0
2017-Nov-17 01:58N 37°58' E 023°36'0 0.0
2017-Nov-17 01:28N 37°58' E 023°36'0 0.0
2017-Nov-17 00:58N 37°58' E 023°36'0 0.0
2017-Nov-17 00:28N 37°58' E 023°36'0 0.0
2017-Nov-16 23:58N 37°58' E 023°36'0 0.0
2017-Nov-16 23:28N 37°58' E 023°36'0 0.0
2017-Nov-16 22:58N 37°58' E 023°36'0 0.0
2017-Nov-16 22:28N 37°58' E 023°36'0 0.0
2017-Nov-16 21:58N 37°58' E 023°36'0 0.0
2017-Nov-16 21:28N 37°58' E 023°36'0 0.0
2017-Nov-16 20:58N 37°58' E 023°36'0 0.0
2017-Nov-16 20:28N 37°58' E 023°36'0 0.0
2017-Nov-16 19:58N 37°58' E 023°36'0 0.0
2017-Nov-16 19:28N 37°58' E 023°36'0 0.0
2017-Nov-16 18:58N 37°58' E 023°36'0 0.0
2017-Nov-16 18:28N 37°58' E 023°36'0 0.0
2017-Nov-16 17:58N 37°58' E 023°36'0 0.0
2017-Nov-16 17:28N 37°58' E 023°36'0 0.0
2017-Nov-16 16:58N 37°58' E 023°36'0 0.0
2017-Nov-16 16:28N 37°58' E 023°36'0 0.0
2017-Nov-16 15:58N 37°58' E 023°36'0 0.0
2017-Nov-16 15:28N 37°58' E 023°36'0 0.0
2017-Nov-16 14:59N 37°58' E 023°36'2 4.0
2017-Nov-16 14:30N 37°56' E 023°36'1 1.5
2017-Nov-16 14:00N 37°55' E 023°36'1 1.6
2017-Nov-16 13:30N 37°54' E 023°36'1 1.8
2017-Nov-16 13:00N 37°54' E 023°37'1 2.5
2017-Nov-16 12:30N 37°52' E 023°37'2 4.0
2017-Nov-16 12:00N 37°54' E 023°36'0 0.9
2017-Nov-16 11:30N 37°54' E 023°36'0 0.7
2017-Nov-16 11:00N 37°53' E 023°36'1 1.1
2017-Nov-16 10:30N 37°53' E 023°37'1 1.2
2017-Nov-16 10:00N 37°52' E 023°37'0 0.8
2017-Nov-16 09:30N 37°52' E 023°37'1 3.0
2017-Nov-16 09:00N 37°53' E 023°35'1 1.3
2017-Nov-16 08:30N 37°53' E 023°35'1 1.2
2017-Nov-16 08:00N 37°53' E 023°35'0 0.8
2017-Nov-16 07:30N 37°53' E 023°36'1 1.7
2017-Nov-16 07:00N 37°53' E 023°35'1 1.3
2017-Nov-16 06:30N 37°53' E 023°35'1 1.4
2017-Nov-16 06:00N 37°52' E 023°35'0 0.6
2017-Nov-16 05:30N 37°52' E 023°35'1 2.3
2017-Nov-16 05:00N 37°53' E 023°36'2 4.5
2017-Nov-16 04:30N 37°52' E 023°39'816.3
2017-Nov-16 04:00N 37°44' E 023°43'816.6
2017-Nov-16 03:30N 37°37' E 023°47'816.5
2017-Nov-16 03:00N 37°29' E 023°50'1016.7
2017-Nov-16 02:25N 37°19' E 023°54'  
Track history (hours):
 
Tides and Currents Weather Stations Pressure Air Temp Water Temp Dewpoint Dewpoint Depression Visibility Wind Speed Wind Dir Waves Ship Positions

Grand Ruby

Last reported at 2017-Nov-20 00:31 UTC. Time now 2017-Nov-22 20:45 UTC.
Position N 43°14' E 010°03'.

Length 199 m; draft 9 m.

Type: Cargo ship. MMSI: 372399000.

Date/timePositionNaut miles runAvg speedWind from/ knotsBaromVisibWave heightAir tempDewpointWater temp
2017-Nov-20 00:31N 43°14' E 010°03'1 1.2
2017-Nov-20 00:00N 43°14' E 010°03'4 7.1
2017-Nov-19 23:30N 43°10' E 010°02'714.3
2017-Nov-19 23:01N 43°03' E 010°00'815.3
2017-Nov-19 22:30N 42°56' E 009°58'5414.0
2017-Nov-19 18:39N 42°03' E 010°17'315.6
2017-Nov-19 18:27N 42°01' E 010°20'27615.3
2017-Nov-19 00:29N 38°58' E 014°50'815.9
2017-Nov-18 23:59N 38°52' E 014°57'715.4
2017-Nov-18 23:30N 38°47' E 015°04'816.1
2017-Nov-18 23:00N 38°42' E 015°13'815.9
2017-Nov-18 22:30N 38°37' E 015°20'815.9
2017-Nov-18 22:00N 38°32' E 015°28'815.7
2017-Nov-18 21:30N 38°27' E 015°35'815.2
2017-Nov-18 21:00N 38°21' E 015°42'612.5
2017-Nov-18 20:31N 38°15' E 015°39'612.7
2017-Nov-18 20:00N 38°09' E 015°36'612.1
2017-Nov-18 19:30N 38°03' E 015°36'612.9
2017-Nov-18 19:00N 37°56' E 015°36'714.8
2017-Nov-18 18:30N 37°50' E 015°41'816.2
2017-Nov-18 18:00N 37°50' E 015°52'815.9
2017-Nov-18 17:30N 37°48' E 016°02'36313.8
2017-Nov-17 15:07N 37°18' E 023°38'216.6
2017-Nov-17 15:00N 37°20' E 023°38'916.4
2017-Nov-17 14:29N 37°28' E 023°40'816.1
2017-Nov-17 14:00N 37°36' E 023°42'815.6
2017-Nov-17 13:30N 37°43' E 023°40'815.7
2017-Nov-17 13:00N 37°51' E 023°37'611.5
2017-Nov-17 12:31N 37°56' E 023°36'1 2.3
2017-Nov-17 11:58N 37°58' E 023°36'0 0.0
2017-Nov-17 11:25N 37°58' E 023°36'0 0.0
2017-Nov-17 10:58N 37°58' E 023°36'0 0.0
2017-Nov-17 10:28N 37°58' E 023°36'0 0.0
2017-Nov-17 09:58N 37°58' E 023°36'0 0.0
2017-Nov-17 09:28N 37°58' E 023°36'0 0.0
2017-Nov-17 08:58N 37°58' E 023°36'0 0.0
2017-Nov-17 08:28N 37°58' E 023°36'0 0.0
2017-Nov-17 07:58N 37°58' E 023°36'0 0.0
2017-Nov-17 07:28N 37°58' E 023°36'0 0.0
2017-Nov-17 06:58N 37°58' E 023°36'0 0.0
2017-Nov-17 06:28N 37°58' E 023°36'0 0.0
2017-Nov-17 05:58N 37°58' E 023°36'0 0.0
2017-Nov-17 05:28N 37°58' E 023°36'0 0.0
2017-Nov-17 04:58N 37°58' E 023°36'0 0.0
2017-Nov-17 04:28N 37°58' E 023°36'0 0.0
2017-Nov-17 03:58N 37°58' E 023°36'0 0.0
2017-Nov-17 03:28N 37°58' E 023°36'0 0.0
2017-Nov-17 02:58N 37°58' E 023°36'0 0.0
2017-Nov-17 02:28N 37°58' E 023°36'0 0.0
2017-Nov-17 01:58N 37°58' E 023°36'0 0.0
2017-Nov-17 01:28N 37°58' E 023°36'0 0.0
2017-Nov-17 00:58N 37°58' E 023°36'0 0.0
2017-Nov-17 00:28N 37°58' E 023°36'0 0.0
2017-Nov-16 23:58N 37°58' E 023°36'0 0.0
2017-Nov-16 23:28N 37°58' E 023°36'0 0.0
2017-Nov-16 22:58N 37°58' E 023°36'0 0.0
2017-Nov-16 22:28N 37°58' E 023°36'0 0.0
2017-Nov-16 21:58N 37°58' E 023°36'0 0.0
2017-Nov-16 21:28N 37°58' E 023°36'0 0.0
2017-Nov-16 20:58N 37°58' E 023°36'0 0.0
2017-Nov-16 20:28N 37°58' E 023°36'0 0.0
2017-Nov-16 19:58N 37°58' E 023°36'0 0.0
2017-Nov-16 19:28N 37°58' E 023°36'0 0.0
2017-Nov-16 18:58N 37°58' E 023°36'0 0.0
2017-Nov-16 18:28N 37°58' E 023°36'0 0.0
2017-Nov-16 17:58N 37°58' E 023°36'0 0.0
2017-Nov-16 17:28N 37°58' E 023°36'0 0.0
2017-Nov-16 16:58N 37°58' E 023°36'0 0.0
2017-Nov-16 16:28N 37°58' E 023°36'0 0.0
2017-Nov-16 15:58N 37°58' E 023°36'0 0.0
2017-Nov-16 15:28N 37°58' E 023°36'0 0.0
2017-Nov-16 14:59N 37°58' E 023°36'2 4.0
2017-Nov-16 14:30N 37°56' E 023°36'1 1.5
2017-Nov-16 14:00N 37°55' E 023°36'1 1.6
2017-Nov-16 13:30N 37°54' E 023°36'1 1.8
2017-Nov-16 13:00N 37°54' E 023°37'1 2.5
2017-Nov-16 12:30N 37°52' E 023°37'2 4.0
2017-Nov-16 12:00N 37°54' E 023°36'0 0.9
2017-Nov-16 11:30N 37°54' E 023°36'0 0.7
2017-Nov-16 11:00N 37°53' E 023°36'1 1.1
2017-Nov-16 10:30N 37°53' E 023°37'1 1.2
2017-Nov-16 10:00N 37°52' E 023°37'0 0.8
2017-Nov-16 09:30N 37°52' E 023°37'1 3.0
2017-Nov-16 09:00N 37°53' E 023°35'1 1.3
2017-Nov-16 08:30N 37°53' E 023°35'1 1.2
2017-Nov-16 08:00N 37°53' E 023°35'0 0.8
2017-Nov-16 07:30N 37°53' E 023°36'1 1.7
2017-Nov-16 07:00N 37°53' E 023°35'1 1.3
2017-Nov-16 06:30N 37°53' E 023°35'1 1.4
2017-Nov-16 06:00N 37°52' E 023°35'0 0.6
2017-Nov-16 05:30N 37°52' E 023°35'1 2.3
2017-Nov-16 05:00N 37°53' E 023°36'2 4.5
2017-Nov-16 04:30N 37°52' E 023°39'816.3
2017-Nov-16 04:00N 37°44' E 023°43'816.6
2017-Nov-16 03:30N 37°37' E 023°47'816.5
2017-Nov-16 03:00N 37°29' E 023°50'1016.7
2017-Nov-16 02:25N 37°19' E 023°54'  

Dump ship's entire track history